Time;durP1;ratioP1;P1;durP2;ratioP2;P2;SDS_P1;SDS_P2;PMS_P1;PMS_P2;Temp;Humidity;BMP_temperature;BMP_pressure;BME280_temperature;BME280_humidity;BME280_pressure;Samples;Min_cycle;Max_cycle;Signal;HPM_P1;HPM_P2
2023/10/06 00:01:42;;;;;;;12.10;5.80;;;;;;;15.31;66.09;99951.72;6141706;23;20052;-90
2023/10/06 00:04:12;;;;;;;13.77;6.35;;;;;;;15.40;66.13;99951.09;6139720;23;20016;-92
2023/10/06 00:06:42;;;;;;;14.15;5.90;;;;;;;15.53;65.48;99956.66;6165286;23;20085;-91
2023/10/06 00:09:09;;;;;;;12.77;6.00;;;;;;;15.44;65.73;99955.69;6163386;23;20001;-91
2023/10/06 00:11:40;;;;;;;15.80;6.93;;;;;;;15.32;66.58;99964.19;6164636;23;20420;-91
2023/10/06 00:14:08;;;;;;;14.40;6.13;;;;;;;15.07;67.13;99935.41;6188166;23;20008;-91
2023/10/06 00:16:40;;;;;;;12.63;5.87;;;;;;;15.00;67.37;99936.81;6188479;23;20059;-91
2023/10/06 00:19:31;;;;;;;13.93;6.53;;;;;;;14.97;67.69;99949.03;6139578;23;20241;-92
2023/10/06 00:24:50;;;;;;;13.27;6.72;;;;;;;14.74;68.73;99959.50;6158889;23;20482;-92
2023/10/06 00:27:18;;;;;;;16.05;7.47;;;;;;;14.52;69.02;99946.31;6141302;23;20092;-91
2023/10/06 00:29:49;;;;;;;15.13;6.93;;;;;;;14.41;69.77;99946.69;6141845;23;20005;-92
2023/10/06 00:32:22;;;;;;;18.42;8.38;;;;;;;14.45;69.66;99959.38;6166704;23;20033;-92
2023/10/06 00:35:29;;;;;;;20.25;8.13;;;;;;;14.36;69.94;99939.41;6191225;23;19997;-91
2023/10/06 00:37:43;;;;;;;18.23;8.68;;;;;;;14.46;69.89;99965.59;6169484;23;19997;-91
2023/10/06 00:40:12;;;;;;;20.48;8.15;;;;;;;14.35;69.94;99954.81;6140448;23;20539;-92
2023/10/06 00:42:56;;;;;;;17.58;8.32;;;;;;;14.33;69.41;99938.03;6143946;23;20001;-92
2023/10/06 00:45:26;;;;;;;17.42;7.90;;;;;;;14.46;69.82;99960.19;6166787;23;20084;-93
2023/10/06 00:47:55;;;;;;;19.65;9.88;;;;;;;14.26;70.18;99939.44;6141783;23;20359;-93
2023/10/06 00:50:24;;;;;;;13.82;8.23;;;;;;;14.27;70.41;99947.28;6190079;23;20055;-92
2023/10/06 00:52:51;;;;;;;26.15;8.27;;;;;;;14.23;70.46;99953.53;6141877;23;20008;-92
2023/10/06 00:55:18;;;;;;;19.27;9.23;;;;;;;14.17;70.38;99944.63;6189215;23;19997;-92
2023/10/06 00:57:53;;;;;;;19.23;9.63;;;;;;;14.23;70.55;99964.38;6189850;23;20009;-92
2023/10/06 01:00:25;;;;;;;15.60;8.27;;;;;;;14.20;70.64;99957.63;6143244;23;20091;-93
2023/10/06 01:02:51;;;;;;;18.67;8.32;;;;;;;14.14;70.75;99948.69;6166007;23;20084;-92
2023/10/06 01:05:17;;;;;;;18.05;8.85;;;;;;;14.14;70.72;99956.00;6165392;23;20020;-91
2023/10/06 01:07:45;;;;;;;22.25;9.07;;;;;;;14.10;70.49;99952.25;6139805;23;20000;-92
2023/10/06 01:10:17;;;;;;;20.92;9.05;;;;;;;14.09;70.69;99959.56;6140853;23;20005;-92
2023/10/06 01:12:50;;;;;;;19.95;9.73;;;;;;;14.10;70.53;99965.78;6142591;23;20009;-92
2023/10/06 01:15:19;;;;;;;21.65;9.35;;;;;;;14.03;71.01;99962.53;6166769;23;20001;-92
2023/10/06 01:17:56;;;;;;;19.67;10.00;;;;;;;14.04;71.18;99977.72;6141092;23;20020;-92
2023/10/06 01:20:55;;;;;;;16.75;9.00;;;;;;;14.03;71.14;99976.09;6166862;23;20005;-92
2023/10/06 01:23:21;;;;;;;20.48;10.38;;;;;;;14.02;71.41;99985.31;6169957;23;20001;-92
2023/10/06 01:25:55;;;;;;;27.02;10.18;;;;;;;13.80;71.65;99948.56;6190071;23;20017;-92
2023/10/06 01:28:25;;;;;;;16.33;9.02;;;;;;;13.88;71.75;99963.41;6165452;23;20067;-92
2023/10/06 01:30:53;;;;;;;23.55;9.70;;;;;;;13.80;71.63;99953.97;6166943;23;20005;-92
2023/10/06 01:33:21;;;;;;;21.25;9.82;;;;;;;13.73;71.65;99959.66;6165318;23;19981;-92
2023/10/06 01:35:47;;;;;;;23.02;9.63;;;;;;;13.69;72.05;99957.78;6139478;23;20004;-92
2023/10/06 01:38:36;;;;;;;23.08;9.40;;;;;;;13.62;72.34;99957.28;6141099;23;19997;-91
2023/10/06 01:41:02;;;;;;;18.42;9.90;;;;;;;13.68;72.07;99964.31;6189685;23;20034;-91
2023/10/06 01:43:29;;;;;;;19.50;9.77;;;;;;;13.91;71.56;99988.03;6164212;23;20032;-92
2023/10/06 01:45:55;;;;;;;18.42;9.52;;;;;;;13.83;71.67;99976.97;6140589;23;20039;-92
2023/10/06 01:48:28;;;;;;;16.95;9.63;;;;;;;13.80;71.63;99970.22;6189800;23;19997;-92
2023/10/06 01:50:55;;;;;;;18.48;9.40;;;;;;;14.00;71.59;99982.06;6189428;23;20440;-91
2023/10/06 01:53:20;;;;;;;21.73;9.43;;;;;;;14.04;71.43;99991.25;6140586;23;20001;-92
2023/10/06 01:56:14;;;;;;;23.77;9.55;;;;;;;14.02;71.18;99982.59;6140030;23;20016;-91
2023/10/06 01:58:39;;;;;;;24.48;9.70;;;;;;;13.99;71.00;99981.25;6135117;23;20010;-92
2023/10/06 02:01:07;;;;;;;19.83;9.68;;;;;;;14.04;70.93;99983.13;6128790;23;20005;-91
2023/10/06 02:03:38;;;;;;;19.65;9.60;;;;;;;14.00;71.07;99982.06;6082302;23;20002;-92
2023/10/06 02:06:12;;;;;;;21.27;9.43;;;;;;;13.93;70.96;99972.34;6080773;23;20021;-91
2023/10/06 02:08:42;;;;;;;16.80;9.40;;;;;;;13.95;71.34;99980.19;6106679;23;20006;-91
2023/10/06 02:11:08;;;;;;;25.60;9.90;;;;;;;13.95;71.16;99977.47;6082466;23;20001;-92
2023/10/06 02:13:35;;;;;;;20.02;9.63;;;;;;;13.97;71.27;99985.34;6080431;23;20006;-92
2023/10/06 02:16:03;;;;;;;23.25;9.85;;;;;;;13.99;71.29;99994.00;6058478;23;20001;-91
2023/10/06 02:18:37;;;;;;;18.35;9.50;;;;;;;14.07;71.06;99996.09;6081663;23;20352;-91
2023/10/06 02:21:14;;;;;;;19.13;9.50;;;;;;;13.97;71.06;99986.16;6083667;23;20041;-92
2023/10/06 02:23:42;;;;;;;23.85;10.05;;;;;;;13.90;70.91;99986.44;6080918;23;20017;-92
2023/10/06 02:26:09;;;;;;;20.75;9.48;;;;;;;13.96;71.10;99984.50;6129266;23;20002;-91
2023/10/06 02:28:40;;;;;;;18.40;9.50;;;;;;;13.80;71.23;99982.94;6060990;23;20029;-91
2023/10/06 02:31:06;;;;;;;18.45;9.60;;;;;;;13.85;70.90;99982.94;6164913;23;20001;-92
2023/10/06 02:33:39;;;;;;;15.55;9.05;;;;;;;13.99;71.36;100002.13;6164412;23;20005;-92
2023/10/06 02:36:21;;;;;;;24.10;9.60;;;;;;;13.71;71.54;99969.16;6165419;23;20333;-92
2023/10/06 02:38:48;;;;;;;16.30;8.93;;;;;;;13.76;71.55;99977.28;6145030;23;20033;-92
2023/10/06 02:41:21;;;;;;;18.90;9.50;;;;;;;13.89;71.63;99997.53;6163284;23;20024;-92
2023/10/06 02:43:50;;;;;;;16.65;9.15;;;;;;;13.70;71.52;99976.47;6140670;23;20013;-91
2023/10/06 02:46:17;;;;;;;18.27;10.25;;;;;;;13.64;72.02;99974.06;6138468;23;20021;-91
2023/10/06 02:48:49;;;;;;;18.85;9.73;;;;;;;13.68;71.89;99986.75;6139932;23;20040;-92
2023/10/06 02:51:29;;;;;;;16.25;9.30;;;;;;;13.77;71.95;99991.59;6143451;23;20012;-92
2023/10/06 02:54:44;;;;;;;22.35;9.38;;;;;;;13.75;71.98;99992.69;6164744;23;20048;-92
2023/10/06 02:56:47;;;;;;;19.27;9.70;;;;;;;13.66;72.01;99982.72;6157153;23;20335;-93
2023/10/06 02:59:21;;;;;;;20.65;10.00;;;;;;;13.66;71.82;99972.69;6139598;23;20012;-92
2023/10/06 03:01:57;;;;;;;20.77;9.20;;;;;;;13.74;71.98;99979.44;6164961;23;20452;-91
2023/10/06 03:04:27;;;;;;;22.77;9.65;;;;;;;13.75;71.71;99970.22;6140387;23;20076;-92
2023/10/06 03:06:58;;;;;;;15.32;8.65;;;;;;;13.81;71.76;99977.25;6188753;23;20008;-92
2023/10/06 03:12:11;;;;;;;21.63;8.75;;;;;;;13.73;71.98;99970.50;6188094;23;20424;-92
2023/10/06 03:14:40;;;;;;;18.65;8.93;;;;;;;13.78;71.59;99972.41;6144503;23;20001;-92
2023/10/06 03:17:08;;;;;;;17.80;9.55;;;;;;;13.73;71.91;99961.56;6164276;23;20001;-92
2023/10/06 03:19:35;;;;;;;18.88;8.88;;;;;;;14.00;71.39;99992.91;6164477;23;20005;-94
2023/10/06 03:22:05;;;;;;;18.92;9.93;;;;;;;13.77;71.40;99956.41;6140077;23;20343;-93
2023/10/06 03:24:32;;;;;;;21.98;8.80;;;;;;;13.87;71.61;99970.72;6190517;23;20009;-95
2023/10/06 03:27:12;;;;;;;20.38;8.85;;;;;;;13.98;71.18;99978.81;6164951;23;20420;-95
2023/10/06 03:32:18;;;;;;;21.42;10.93;;;;;;;13.98;71.14;99974.22;6191275;23;20004;-94
2023/10/06 03:34:47;;;;;;;19.88;10.25;;;;;;;14.02;71.03;99963.66;6165489;23;19992;-94
2023/10/06 03:37:34;;;;;;;19.60;9.40;;;;;;;14.02;70.93;99966.34;6140575;23;20028;-94
2023/10/06 03:40:19;;;;;;;19.95;9.68;;;;;;;14.06;70.81;99975.53;6190043;23;20024;-93
2023/10/06 03:42:47;;;;;;;21.02;9.98;;;;;;;14.23;70.55;99980.63;6146996;23;20005;-93
2023/10/06 03:45:26;;;;;;;19.10;8.98;;;;;;;14.27;70.43;99973.56;6164135;23;20044;-94
2023/10/06 03:48:08;;;;;;;19.92;10.20;;;;;;;14.38;70.50;99987.84;6144800;23;19993;-95
2023/10/06 03:50:38;;;;;;;17.33;9.55;;;;;;;14.39;70.14;99989.50;6145243;23;20001;-94
2023/10/06 03:53:29;;;;;;;17.67;9.32;;;;;;;14.34;69.89;99972.19;6166588;23;20077;-94
2023/10/06 03:55:58;;;;;;;22.40;10.15;;;;;;;14.40;70.06;99991.94;6104925;23;20437;-95
2023/10/06 03:58:29;;;;;;;20.10;10.07;;;;;;;14.30;70.15;99973.03;6082472;23;20009;-94
2023/10/06 04:01:07;;;;;;;34.58;10.82;;;;;;;14.29;70.00;99980.31;6084289;23;20044;-96
2023/10/06 04:03:36;;;;;;;22.20;10.38;;;;;;;14.33;70.08;99978.66;6109095;23;20073;-93
2023/10/06 04:06:05;;;;;;;19.63;10.07;;;;;;;14.23;70.29;99976.00;6082524;23;20014;-93
2023/10/06 04:08:31;;;;;;;24.95;10.02;;;;;;;14.24;70.04;99971.41;6107454;23;20088;-93
2023/10/06 04:10:58;;;;;;;23.48;11.07;;;;;;;14.36;70.43;100001.72;6106604;23;20425;-94
2023/10/06 04:13:31;;;;;;;21.08;10.68;;;;;;;14.28;70.03;99997.66;6106876;23;20068;-93
2023/10/06 04:15:58;;;;;;;24.83;11.43;;;;;;;14.17;70.36;99984.44;6108204;23;20132;-96
2023/10/06 04:18:26;;;;;;;30.20;13.20;;;;;;;14.22;70.59;99992.56;6132425;23;20006;-93
2023/10/06 04:20:52;;;;;;;28.85;11.43;;;;;;;14.17;70.78;100009.63;6082985;23;20045;-94
2023/10/06 04:23:22;;;;;;;24.52;11.68;;;;;;;13.97;71.06;99986.16;6083198;23;20008;-94
2023/10/06 04:25:56;;;;;;;25.50;11.20;;;;;;;13.96;70.94;99987.22;6088965;23;20564;-94
2023/10/06 04:28:25;;;;;;;26.90;12.70;;;;;;;13.88;71.05;99982.38;6144509;23;20009;-95
2023/10/06 04:30:50;;;;;;;27.60;12.15;;;;;;;14.05;70.68;99996.41;6144182;23;20084;-93
2023/10/06 04:33:20;;;;;;;27.40;11.15;;;;;;;13.93;70.84;100004.81;6143668;23;20001;-94
2023/10/06 04:35:55;;;;;;;29.35;11.90;;;;;;;13.97;70.88;100004.28;6193217;23;20639;-91
2023/10/06 04:38:26;;;;;;;21.10;9.90;;;;;;;13.90;70.94;99993.72;6168208;23;20097;-96
2023/10/06 04:40:52;;;;;;;16.33;9.82;;;;;;;13.77;71.31;99992.41;6170212;23;20001;-94
2023/10/06 04:43:22;;;;;;;30.00;12.25;;;;;;;13.72;71.58;99992.44;6168892;23;19998;-95
2023/10/06 04:45:47;;;;;;;30.20;13.88;;;;;;;13.81;71.45;99992.69;6147040;23;20032;-93
2023/10/06 04:48:25;;;;;;;21.10;11.73;;;;;;;13.78;71.21;100004.88;6179945;23;19996;-94
2023/10/06 04:50:51;;;;;;;21.88;11.05;;;;;;;13.83;71.13;99996.72;6149673;23;20005;-95
2023/10/06 04:53:23;;;;;;;18.65;11.07;;;;;;;14.18;70.74;100032.13;6174340;23;19985;-92
2023/10/06 04:55:48;;;;;;;20.75;12.50;;;;;;;14.10;70.48;100019.94;6176176;23;20056;-95
2023/10/06 04:58:18;;;;;;;24.77;12.45;;;;;;;14.29;70.21;100026.38;6174575;23;20020;-96
2023/10/06 05:00:49;;;;;;;32.80;12.95;;;;;;;14.24;70.32;100020.19;6145642;23;20033;-93
2023/10/06 05:03:17;;;;;;;27.55;12.40;;;;;;;14.11;70.77;100010.72;6172352;23;20016;-94
2023/10/06 05:06:24;;;;;;;28.52;12.35;;;;;;;14.28;70.68;100051.03;6146689;23;20069;-95
2023/10/06 05:08:52;;;;;;;28.40;10.95;;;;;;;14.15;70.89;100034.28;6197250;23;20005;-94
2023/10/06 05:11:37;;;;;;;31.30;14.13;;;;;;;14.32;70.21;100030.44;6151639;23;20001;-96
2023/10/06 05:14:08;;;;;;;27.20;12.85;;;;;;;14.56;69.44;100049.59;6155927;23;19997;-92
2023/10/06 05:16:51;;;;;;;24.63;13.90;;;;;;;14.78;68.96;100060.06;6203328;23;19985;-96
2023/10/06 05:19:23;;;;;;;29.38;13.65;;;;;;;14.70;68.81;100026.22;6132524;23;20006;-95
2023/10/06 05:22:21;;;;;;;31.00;12.32;;;;;;;14.84;68.17;100048.09;6109564;23;20013;-94
2023/10/06 05:24:53;;;;;;;28.20;13.65;;;;;;;14.92;68.09;100049.38;6097137;23;20021;-95
2023/10/06 05:28:28;;;;;;;29.25;13.30;;;;;;;14.83;68.26;100046.47;6093904;23;19997;-95
2023/10/06 05:30:50;;;;;;;24.60;13.05;;;;;;;14.88;68.50;100051.88;6153732;23;20021;-92
2023/10/06 05:33:57;;;;;;;29.80;12.70;;;;;;;15.09;68.60;100076.16;6092988;23;20083;-95
2023/10/06 05:36:28;;;;;;;24.85;11.57;;;;;;;14.95;68.41;100049.66;6140812;23;19986;-93
2023/10/06 05:39:05;;;;;;;22.75;12.10;;;;;;;15.16;68.35;100087.50;6098423;23;20005;-94
2023/10/06 05:41:35;;;;;;;46.47;15.00;;;;;;;15.11;68.49;100065.84;6099089;23;20006;-93
2023/10/06 05:44:21;;;;;;;26.00;13.00;;;;;;;15.25;67.40;100061.41;6125489;23;20068;-94
2023/10/06 05:46:55;;;;;;;27.77;13.02;;;;;;;15.39;67.65;100066.97;6148169;23;20004;-93
2023/10/06 05:49:23;;;;;;;25.95;12.43;;;;;;;15.54;66.78;100085.03;6168566;23;20041;-91
2023/10/06 05:52:03;;;;;;;34.15;17.08;;;;;;;15.62;65.99;100070.06;6170304;23;20001;-94
2023/10/06 05:54:29;;;;;;;40.25;19.38;;;;;;;15.74;66.10;100067.81;6150992;23;20024;-93
2023/10/06 05:57:43;;;;;;;;;;;;;;;;;;;;;
2023/10/06 06:06:50;;;;;;;27.77;14.13;;;;;;;16.16;64.62;100071.72;6002440;23;20019;-92
2023/10/06 06:13:21;;;;;;;28.70;12.13;;;;;;;16.57;64.37;100104.69;5963786;24;20039;-92
2023/10/06 06:15:56;;;;;;;28.80;13.50;;;;;;;16.45;63.81;100081.72;5880939;23;20092;-91
2023/10/06 06:18:27;;;;;;;32.33;12.80;;;;;;;16.45;64.17;100084.44;6078537;23;20007;-89
2023/10/06 06:20:54;;;;;;;31.00;12.10;;;;;;;16.50;64.60;100095.28;6078927;23;20013;-93
2023/10/06 06:23:38;;;;;;;18.45;9.65;;;;;;;16.63;64.10;100091.03;6080246;23;20049;-92
2023/10/06 06:26:09;;;;;;;19.92;10.13;;;;;;;16.73;63.98;100120.81;6037251;23;20026;-89
2023/10/06 06:28:55;;;;;;;21.98;10.88;;;;;;;16.69;63.72;100098.03;6079748;23;20002;-92
2023/10/06 06:31:52;;;;;;;20.02;10.10;;;;;;;16.74;63.37;100085.16;6082063;23;20097;-91
2023/10/06 06:34:36;;;;;;;23.50;9.48;;;;;;;16.90;63.23;100095.88;6064778;23;20520;-93
2023/10/06 06:37:05;;;;;;;19.58;9.35;;;;;;;17.13;62.65;100110.53;6055374;23;20006;-95
2023/10/06 06:39:34;;;;;;;20.88;8.75;;;;;;;17.23;62.30;100117.75;6056452;23;20002;-96
2023/10/06 06:42:18;;;;;;;16.13;8.52;;;;;;;17.06;62.40;100119.06;6057268;23;20010;-92
2023/10/06 06:45:00;;;;;;;22.80;9.27;;;;;;;17.16;63.07;100123.53;6097323;23;20005;-93
2023/10/06 06:47:48;;;;;;;;;;;;;;;;;;;;;
2023/10/06 06:53:36;;;;;;;17.52;9.45;;;;;;;17.62;61.79;100111.13;6122961;23;20037;-95
2023/10/06 06:56:10;;;;;;;15.50;9.02;;;;;;;17.67;61.32;100100.19;6168996;23;20009;-94
2023/10/06 06:59:12;;;;;;;14.60;8.75;;;;;;;18.04;60.78;100128.47;6149893;23;20013;-94
2023/10/06 07:01:52;;;;;;;19.42;9.48;;;;;;;18.15;60.45;100119.78;6179824;23;20000;-94
2023/10/06 07:04:44;;;;;;;22.27;13.40;;;;;;;18.14;60.13;100098.31;6174957;23;20009;-94
2023/10/06 07:10:15;;;;;;;21.90;9.50;;;;;;;18.47;59.79;100112.66;6200174;23;19919;-92
2023/10/06 07:13:00;;;;;;;18.55;8.80;;;;;;;18.69;58.98;100127.50;6142329;23;20055;-94
2023/10/06 07:26:00;;;;;;;23.48;11.20;;;;;;;19.23;57.76;100128.53;5988170;24;20028;-93
2023/10/06 08:22:47;;;;;;;9.88;5.15;;;;;;;21.03;50.70;100113.75;6235370;23;20060;-95
2023/10/06 08:26:21;;;;;;;15.07;8.13;;;;;;;21.08;51.37;100110.03;6154417;23;20009;-95
2023/10/06 08:29:13;;;;;;;11.73;5.78;;;;;;;21.11;50.71;100118.44;6117743;23;20013;-92
2023/10/06 08:37:16;;;;;;;7.00;4.53;;;;;;;21.29;50.63;100132.97;6224477;22;20017;-96
2023/10/06 08:44:09;;;;;;;17.10;4.57;;;;;;;21.24;50.93;100104.91;6048932;23;19996;-96
2023/10/06 08:50:33;;;;;;;8.75;5.05;;;;;;;21.52;50.02;100125.41;5966144;23;20041;-91
2023/10/06 08:53:15;;;;;;;;;;;;;;;;;;;;;
2023/10/06 08:56:31;;;;;;;9.45;4.78;;;;;;;21.86;48.71;100131.16;6029898;23;20026;-95
2023/10/06 09:10:08;;;;;;;12.13;5.75;;;;;;;22.35;48.89;100117.97;6082674;23;20037;-95
2023/10/06 09:15:54;;;;;;;;;;;;;;;;;;;;;
2023/10/06 09:18:34;;;;;;;9.65;4.57;;;;;;;22.63;46.41;100107.34;6205039;23;19908;-96
2023/10/06 09:21:32;;;;;;;;;;;;;;;;;;;;;
2023/10/06 09:24:27;;;;;;;12.05;7.55;;;;;;;22.58;46.18;100099.31;6152816;23;20021;-96
2023/10/06 09:33:37;;;;;;;10.32;4.10;;;;;;;22.70;45.87;100123.28;6139995;23;20024;-92
2023/10/06 09:37:00;;;;;;;10.38;4.40;;;;;;;22.38;45.85;100093.41;6167160;23;20340;-95
2023/10/06 09:39:03;;;;;;;13.65;5.43;;;;;;;22.33;45.77;100095.53;6135467;23;20013;-93
2023/10/06 09:45:13;;;;;;;9.85;4.38;;;;;;;22.39;45.47;100095.03;6050042;23;20007;-94
2023/10/06 09:47:40;;;;;;;9.80;4.20;;;;;;;22.52;44.96;100075.94;6087619;23;20006;-94
2023/10/06 09:50:37;;;;;;;8.25;4.45;;;;;;;22.82;44.78;100106.09;6081574;23;20504;-94
2023/10/06 09:53:08;;;;;;;10.13;4.30;;;;;;;22.77;44.75;100099.66;6092101;23;20001;-96
2023/10/06 09:56:11;;;;;;;11.48;4.30;;;;;;;22.98;43.69;100099.69;6132466;23;20032;-92
2023/10/06 09:58:43;;;;;;;8.05;4.50;;;;;;;22.95;43.03;100085.81;6149230;23;19997;-94
2023/10/06 10:01:18;;;;;;;18.98;4.57;;;;;;;22.85;43.00;100064.25;6173057;23;20012;-95
2023/10/06 10:03:47;;;;;;;12.98;4.22;;;;;;;22.98;42.97;100085.16;6145633;23;20005;-92
2023/10/06 10:06:16;;;;;;;12.32;4.22;;;;;;;23.09;42.70;100094.63;6118146;23;20043;-94
2023/10/06 10:08:42;;;;;;;8.35;4.20;;;;;;;23.08;42.73;100062.03;6143791;23;20041;-95
2023/10/06 10:11:51;;;;;;;11.35;3.97;;;;;;;23.36;42.60;100074.03;6144314;23;19997;-95
2023/10/06 10:14:39;;;;;;;9.05;4.57;;;;;;;23.58;41.92;100085.81;6166177;23;20009;-94
2023/10/06 10:17:29;;;;;;;6.68;3.95;;;;;;;23.70;41.64;100063.84;6145588;23;20016;-95
2023/10/06 10:20:27;;;;;;;9.05;4.10;;;;;;;23.64;41.17;100043.22;6167632;23;20009;-94
2023/10/06 10:23:03;;;;;;;9.13;4.45;;;;;;;23.54;41.33;100052.69;6122528;23;20009;-93
2023/10/06 10:25:36;;;;;;;15.93;7.50;;;;;;;23.37;41.83;100031.69;6142612;23;20037;-91
2023/10/06 10:28:27;;;;;;;11.70;5.10;;;;;;;23.58;41.70;100028.09;6143584;23;20001;-93
2023/10/06 10:31:28;;;;;;;;;;;;;;;;;;;;;
2023/10/06 10:33:56;;;;;;;8.38;4.22;;;;;;;23.38;41.22;100027.78;6197018;23;20020;-95
2023/10/06 10:37:24;;;;;;;;;;;;;;;;;;;;;
2023/10/06 10:39:55;;;;;;;9.80;4.13;;;;;;;23.57;41.03;100021.78;6193413;23;20021;-93
2023/10/06 10:42:22;;;;;;;12.93;4.63;;;;;;;23.58;41.38;100017.09;6143801;23;20352;-95
2023/10/06 10:44:48;;;;;;;9.68;4.50;;;;;;;23.59;41.15;100015.94;6167749;23;20005;-92
2023/10/06 10:47:26;;;;;;;10.25;4.50;;;;;;;23.63;40.31;99999.56;6128405;23;20007;-94
2023/10/06 10:49:55;;;;;;;8.10;3.75;;;;;;;23.74;40.30;100012.53;6149851;23;20078;-95
2023/10/06 10:52:27;;;;;;;8.63;4.25;;;;;;;23.74;40.65;100018.03;6153876;23;20005;-92
2023/10/06 10:55:00;;;;;;;;;;;;;;;23.54;40.12;100010.66;6121441;23;20388;-95
2023/10/06 10:57:25;;;;;;;10.50;4.53;;;;;;;23.46;40.92;100019.81;6173289;23;19904;-95
2023/10/06 11:04:08;;;;;;;8.18;4.68;;;;;;;23.49;41.27;100008.09;6194511;23;20012;-96
2023/10/06 11:06:55;;;;;;;;;;;;;;;;;;;;;
2023/10/06 11:20:26;;;;;;;;;;;;;;;;;;;;;
2023/10/06 11:30:24;;;;;;;15.18;5.70;;;;;;;23.56;40.37;99980.88;6099366;23;20025;-92
2023/10/06 11:33:04;;;;;;;7.95;4.65;;;;;;;23.80;40.20;99980.13;6178268;23;20012;-94
2023/10/06 11:35:41;;;;;;;13.52;6.90;;;;;;;24.09;40.02;100003.06;6170187;23;20089;-92
2023/10/06 11:38:15;;;;;;;11.70;4.82;;;;;;;23.92;39.28;99971.88;6173534;23;20004;-92
2023/10/06 11:41:12;;;;;;;10.15;4.97;;;;;;;24.04;39.34;99971.09;6145655;23;20001;-95
2023/10/06 11:43:40;;;;;;;11.82;5.20;;;;;;;24.22;39.82;99982.66;6142902;23;20315;-92
2023/10/06 11:53:05;;;;;;;10.30;4.93;;;;;;;24.28;38.57;99989.53;6169222;23;20113;-94
2023/10/06 11:55:34;;;;;;;11.48;5.18;;;;;;;24.28;38.66;99977.72;6111868;23;20021;-93
2023/10/06 11:58:07;;;;;;;13.70;5.10;;;;;;;24.24;38.10;99977.63;6113380;23;20006;-93
2023/10/06 12:00:43;;;;;;;7.80;5.38;;;;;;;24.23;38.16;99994.47;6113856;23;20005;-92
2023/10/06 12:03:12;;;;;;;10.57;5.80;;;;;;;24.16;38.18;99995.84;6087860;23;20015;-95
2023/10/06 12:05:41;;;;;;;7.78;4.30;;;;;;;24.26;38.30;99997.34;6111883;23;20033;-93
2023/10/06 12:08:15;;;;;;;11.55;4.95;;;;;;;24.15;38.07;99983.22;6112885;23;20016;-93
2023/10/06 12:10:55;;;;;;;9.60;5.35;;;;;;;23.98;38.39;99986.22;6136406;23;20013;-94
2023/10/06 12:13:26;;;;;;;16.88;5.53;;;;;;;23.97;38.43;99979.91;6112311;23;20080;-96
2023/10/06 12:16:11;;;;;;;;;;;;;;;;;;;;;
2023/10/06 12:18:49;;;;;;;9.27;5.57;;;;;;;23.81;38.74;99973.50;6097098;23;20029;-96
2023/10/06 12:21:56;;;;;;;7.80;4.93;;;;;;;23.92;38.38;99966.38;6202624;23;20013;-96
2023/10/06 12:24:46;;;;;;;8.75;4.88;;;;;;;24.04;38.01;99957.34;6139573;23;20002;-96
2023/10/06 12:27:17;;;;;;;12.13;4.95;;;;;;;24.03;38.66;99965.94;6088753;23;20140;-94
2023/10/06 12:29:44;;;;;;;13.25;5.43;;;;;;;24.04;38.34;99984.06;6060258;23;20013;-92
2023/10/06 12:32:25;;;;;;;10.77;5.22;;;;;;;23.79;39.17;99965.59;6058586;23;20010;-93
2023/10/06 12:35:10;;;;;;;10.05;5.68;;;;;;;23.79;39.29;99981.28;6058767;23;20006;-92
2023/10/06 12:38:20;;;;;;;9.30;6.00;;;;;;;23.91;39.15;99991.50;6085559;23;20002;-93
2023/10/06 15:15:30;;;;;;;7.28;3.47;;;;;;;22.40;34.16;100000.59;6172031;23;20079;-92
2023/10/06 15:17:57;;;;;;;9.77;3.70;;;;;;;22.51;34.21;100020.22;6141653;23;20017;-92
2023/10/06 15:20:42;;;;;;;31.55;7.72;;;;;;;22.18;36.33;99998.94;6142483;23;20007;-91
2023/10/06 15:23:12;;;;;;;9.45;3.90;;;;;;;22.30;35.01;100008.41;6145272;23;20064;-93
2023/10/06 15:29:19;;;;;;;5.57;3.53;;;;;;;22.15;35.16;100012.50;6143176;23;20015;-92
2023/10/06 15:31:48;;;;;;;6.40;3.20;;;;;;;22.09;35.15;100008.34;6135097;23;20001;-92
2023/10/06 15:34:14;;;;;;;7.95;3.42;;;;;;;22.06;36.07;100006.22;6164030;23;19997;-93
2023/10/06 15:36:39;;;;;;;10.15;3.53;;;;;;;22.03;37.06;100032.38;6140554;23;20032;-95
2023/10/06 15:39:18;;;;;;;16.20;4.05;;;;;;;22.03;37.37;100042.56;6164962;23;20349;-92
2023/10/06 15:41:48;;;;;;;11.57;4.00;;;;;;;21.76;37.68;100022.66;6189331;23;20024;-91
2023/10/06 15:44:43;;;;;;;14.38;5.20;;;;;;;21.71;38.20;100031.06;6140613;23;20055;-94
2023/10/06 15:47:09;;;;;;;14.93;5.20;;;;;;;21.53;38.77;100022.06;6170732;23;20012;-92
2023/10/06 15:49:37;;;;;;;10.20;3.83;;;;;;;21.52;37.84;100037.72;6189391;23;20423;-91
2023/10/06 15:52:34;;;;;;;25.45;6.22;;;;;;;21.38;38.25;100037.88;6140830;23;20007;-91
2023/10/06 15:54:59;;;;;;;9.05;4.57;;;;;;;21.34;38.68;100030.63;6165631;23;20088;-91
2023/10/06 15:57:25;;;;;;;9.30;4.20;;;;;;;21.34;38.27;100038.84;6162892;23;20001;-91
2023/10/06 15:59:50;;;;;;;8.68;3.67;;;;;;;21.28;37.66;100043.69;6163819;23;20340;-91
2023/10/06 16:02:20;;;;;;;11.45;4.10;;;;;;;21.14;39.00;100027.41;6191225;23;19997;-92
2023/10/06 16:04:51;;;;;;;12.65;4.43;;;;;;;20.99;39.78;100028.69;6163211;23;20064;-91
2023/10/06 16:07:21;;;;;;;12.32;5.15;;;;;;;20.94;40.24;100042.56;6164190;23;20012;-95
2023/10/06 16:09:50;;;;;;;12.82;4.88;;;;;;;20.91;40.04;100034.19;6139760;23;20067;-91
2023/10/06 16:12:23;;;;;;;10.73;4.15;;;;;;;20.73;41.30;100042.38;6164426;23;20072;-93
2023/10/06 16:14:48;;;;;;;11.40;5.10;;;;;;;20.70;41.24;100032.06;6142061;23;19997;-92
2023/10/06 16:17:15;;;;;;;25.73;7.45;;;;;;;20.70;41.57;100034.81;6163330;23;20008;-92
2023/10/06 16:19:40;;;;;;;12.90;5.72;;;;;;;20.69;42.21;100046.06;6190440;23;20066;-91
2023/10/06 16:22:09;;;;;;;16.75;6.05;;;;;;;20.61;42.13;100046.84;6162502;23;20001;-92
2023/10/06 16:24:35;;;;;;;15.88;6.78;;;;;;;20.68;42.34;100060.88;6163365;23;20056;-91
2023/10/06 16:27:00;;;;;;;16.45;5.57;;;;;;;20.49;42.92;100050.19;6138738;23;20432;-90
2023/10/06 16:29:26;;;;;;;15.35;6.57;;;;;;;20.50;42.71;100047.16;6139008;23;20053;-91
2023/10/06 16:31:52;;;;;;;19.52;7.10;;;;;;;20.55;42.98;100062.59;6138616;23;20355;-92
2023/10/06 16:34:19;;;;;;;14.52;6.32;;;;;;;20.46;43.78;100069.97;6139406;23;20005;-92
2023/10/06 16:36:47;;;;;;;19.20;8.15;;;;;;;20.45;43.86;100077.38;6140683;23;20033;-91
2023/10/06 16:39:16;;;;;;;16.67;7.78;;;;;;;20.54;44.21;100085.59;6138672;23;20012;-91
2023/10/06 16:41:42;;;;;;;11.23;5.38;;;;;;;20.43;42.57;100073.34;6114805;23;20059;-91
2023/10/06 16:44:08;;;;;;;14.07;5.28;;;;;;;20.48;42.48;100075.94;6114160;23;20009;-92
2023/10/06 16:46:35;;;;;;;13.25;6.10;;;;;;;20.61;42.96;100096.94;6113838;23;20016;-91
2023/10/06 16:49:02;;;;;;;12.50;6.15;;;;;;;20.37;43.35;100078.16;6163370;23;20087;-92
2023/10/06 16:51:32;;;;;;;14.20;6.38;;;;;;;20.48;43.29;100095.06;6163808;23;20009;-92
2023/10/06 16:54:00;;;;;;;15.25;5.93;;;;;;;20.30;44.10;100069.63;6116218;23;20005;-93
2023/10/06 16:56:26;;;;;;;11.98;5.97;;;;;;;20.16;44.28;100086.13;6141131;23;20025;-91
2023/10/06 16:58:52;;;;;;;15.88;5.55;;;;;;;20.11;44.68;100094.47;6163260;23;20001;-92
2023/10/06 17:01:17;;;;;;;10.30;5.28;;;;;;;20.08;44.95;100092.34;6162850;23;20000;-93
2023/10/06 17:03:43;;;;;;;16.45;7.60;;;;;;;20.02;44.99;100085.41;6138753;23;20004;-92
2023/10/06 17:06:11;;;;;;;21.35;7.78;;;;;;;20.02;44.45;100097.13;6188973;23;19985;-92
2023/10/06 17:08:40;;;;;;;16.80;7.03;;;;;;;20.06;44.41;100106.31;6140831;23;20015;-92
2023/10/06 17:11:17;;;;;;;18.23;7.28;;;;;;;19.95;45.92;100099.53;6165592;23;20008;-91
2023/10/06 17:13:42;;;;;;;23.05;6.47;;;;;;;19.76;46.76;100100.53;6140885;23;20067;-92
2023/10/06 17:16:09;;;;;;;25.50;7.43;;;;;;;19.84;47.03;100120.84;6140367;23;20440;-91
2023/10/06 17:18:35;;;;;;;13.52;7.38;;;;;;;19.81;46.99;100123.41;6164892;23;20336;-93
2023/10/06 17:21:00;;;;;;;17.92;8.27;;;;;;;19.76;47.09;100124.34;6141151;23;20371;-92
2023/10/06 17:23:26;;;;;;;20.30;7.50;;;;;;;19.71;47.22;100116.25;6116738;23;20067;-92
2023/10/06 17:25:52;;;;;;;29.27;11.73;;;;;;;19.49;48.35;100126.03;6139086;23;20040;-92